createdAt,value
2022-11-23T00:01:36.715Z,8.64
2022-11-23T00:04:11.775Z,8.61
2022-11-23T00:06:41.059Z,8.63
2022-11-23T00:09:11.401Z,8.63
2022-11-23T00:11:39.192Z,8.62
2022-11-23T00:14:07.000Z,8.56
2022-11-23T00:16:34.826Z,8.55
2022-11-23T00:19:02.946Z,8.56
2022-11-23T00:21:33.040Z,8.61
2022-11-23T00:24:01.247Z,8.65
2022-11-23T00:26:29.283Z,8.69
2022-11-23T00:28:57.201Z,8.71
2022-11-23T00:31:27.972Z,8.80
2022-11-23T00:33:57.425Z,8.87
2022-11-23T00:36:27.485Z,8.94
2022-11-23T00:38:56.346Z,9.03
2022-11-23T00:41:27.095Z,9.06
2022-11-23T00:43:55.345Z,9.11
2022-11-23T00:46:26.626Z,9.13
2022-11-23T00:48:57.108Z,9.13
2022-11-23T00:51:32.238Z,9.11
2022-11-23T00:54:01.897Z,9.07
2022-11-23T00:56:31.257Z,9.05
2022-11-23T00:59:01.082Z,8.96
2022-11-23T01:01:36.957Z,8.94
2022-11-23T01:04:08.004Z,8.89
2022-11-23T01:06:40.077Z,8.92
2022-11-23T01:09:17.942Z,8.92
2022-11-23T01:11:46.270Z,8.89
2022-11-23T01:14:14.157Z,8.90
2022-11-23T01:16:42.514Z,8.82
2022-11-23T01:19:21.198Z,8.76
2022-11-23T01:21:51.643Z,8.75
2022-11-23T01:24:22.874Z,8.74
2022-11-23T01:26:55.231Z,8.75
2022-11-23T01:29:24.343Z,8.76
2022-11-23T01:31:52.307Z,8.78
2022-11-23T01:34:20.142Z,8.74
2022-11-23T01:36:47.875Z,8.74
2022-11-23T01:39:16.344Z,8.70
2022-11-23T01:41:46.759Z,8.67
2022-11-23T01:44:43.472Z,8.56
2022-11-23T01:47:11.399Z,8.61
2022-11-23T01:49:51.774Z,8.60
2022-11-23T01:52:26.156Z,8.57
2022-11-23T01:54:58.186Z,8.59
2022-11-23T01:57:32.706Z,8.60
2022-11-23T02:00:02.072Z,8.59
2022-11-23T02:02:47.869Z,8.63
2022-11-23T02:05:22.924Z,8.64
2022-11-23T02:07:51.384Z,8.61
2022-11-23T02:10:21.338Z,8.60
2022-11-23T02:12:49.152Z,8.55
2022-11-23T02:15:17.267Z,8.56
2022-11-23T02:17:46.083Z,8.55
2022-11-23T02:20:18.522Z,8.47
2022-11-23T02:23:04.623Z,8.50
2022-11-23T02:25:46.327Z,8.52
2022-11-23T02:28:26.903Z,8.51
2022-11-23T02:30:55.849Z,8.52
2022-11-23T02:33:25.552Z,8.53
2022-11-23T02:35:59.029Z,8.54
2022-11-23T02:38:32.118Z,8.53
2022-11-23T02:41:00.702Z,8.57
2022-11-23T02:43:28.557Z,8.59
2022-11-23T02:45:59.700Z,8.54
2022-11-23T02:48:27.548Z,8.51
2022-11-23T02:50:55.849Z,8.48
2022-11-23T02:53:25.138Z,8.46
2022-11-23T02:55:55.257Z,8.40
2022-11-23T02:58:25.028Z,8.34
2022-11-23T03:00:52.866Z,8.31
2022-11-23T03:03:20.771Z,8.21
2022-11-23T03:05:48.556Z,8.21
2022-11-23T03:08:16.523Z,8.20
2022-11-23T03:10:44.277Z,8.21
2022-11-23T03:13:12.780Z,8.22
2022-11-23T03:15:41.578Z,8.27
2022-11-23T03:18:10.669Z,8.30
2022-11-23T03:20:39.225Z,8.33
2022-11-23T03:23:07.007Z,8.36
2022-11-23T03:25:34.785Z,8.34
2022-11-23T03:28:04.810Z,8.29
2022-11-23T03:30:34.180Z,8.28
2022-11-23T03:33:04.221Z,8.25
2022-11-23T03:35:32.265Z,8.22
2022-11-23T03:38:23.387Z,8.16
2022-11-23T03:40:52.890Z,8.23
2022-11-23T03:43:33.558Z,8.26
2022-11-23T03:46:01.335Z,8.27
2022-11-23T03:48:29.126Z,8.31
2022-11-23T03:50:57.044Z,8.38
2022-11-23T03:53:25.371Z,8.43
2022-11-23T03:55:55.508Z,8.45
2022-11-23T03:58:25.312Z,8.46
2022-11-23T04:00:53.168Z,8.48
2022-11-23T04:03:21.145Z,8.51
2022-11-23T04:06:07.176Z,8.52
2022-11-23T04:08:58.973Z,8.52
2022-11-23T04:11:44.698Z,8.55
2022-11-23T04:14:12.583Z,8.53
2022-11-23T04:16:40.337Z,8.52
2022-11-23T04:19:08.447Z,8.50
2022-11-23T04:21:37.193Z,8.46
2022-11-23T04:24:05.835Z,8.45
2022-11-23T04:26:36.518Z,8.39
2022-11-23T04:29:04.567Z,8.35
2022-11-23T04:31:34.532Z,8.31
2022-11-23T04:34:11.396Z,8.34
2022-11-23T04:36:40.324Z,8.35
2022-11-23T04:39:12.647Z,8.33
2022-11-23T04:42:06.967Z,8.36
2022-11-23T04:44:35.499Z,8.37
2022-11-23T04:47:05.865Z,8.42
2022-11-23T04:49:37.293Z,8.46
2022-11-23T04:52:05.973Z,8.43
2022-11-23T04:54:38.824Z,8.53
2022-11-23T04:57:10.017Z,8.55
2022-11-23T04:59:39.364Z,8.62
2022-11-23T05:02:07.402Z,8.62
2022-11-23T05:04:48.901Z,8.64
2022-11-23T05:07:18.270Z,8.62
2022-11-23T05:09:52.720Z,8.71
2022-11-23T05:12:22.367Z,8.77
2022-11-23T05:14:51.204Z,8.74
2022-11-23T05:17:31.098Z,8.77
2022-11-23T05:19:59.149Z,8.78
2022-11-23T05:22:28.157Z,8.81
2022-11-23T05:24:56.072Z,8.87
2022-11-23T05:27:25.987Z,8.88
2022-11-23T05:29:53.910Z,8.94
2022-11-23T05:32:21.832Z,8.94
2022-11-23T05:34:50.089Z,9.00
2022-11-23T05:37:19.590Z,9.07
2022-11-23T05:39:54.139Z,9.04
2022-11-23T05:42:24.502Z,9.09
2022-11-23T05:44:55.618Z,9.10
2022-11-23T05:47:30.160Z,9.13
2022-11-23T05:49:58.189Z,9.16
2022-11-23T05:52:29.975Z,9.12
2022-11-23T05:54:58.690Z,9.18
2022-11-23T05:57:26.473Z,9.22
2022-11-23T05:59:54.343Z,9.25
2022-11-23T06:02:26.945Z,9.27
2022-11-23T06:05:00.819Z,9.30
2022-11-23T06:07:39.921Z,9.36
2022-11-23T06:10:12.382Z,9.38
2022-11-23T06:12:45.914Z,9.38
2022-11-23T06:15:18.350Z,9.37
2022-11-23T06:17:47.544Z,9.35
2022-11-23T06:20:20.255Z,9.38
2022-11-23T06:22:56.749Z,9.33
2022-11-23T06:25:26.264Z,9.28
2022-11-23T06:28:01.392Z,9.33
2022-11-23T06:30:37.018Z,9.40
2022-11-23T06:33:08.076Z,9.37
2022-11-23T06:36:00.068Z,9.39
2022-11-23T06:38:33.188Z,9.35
2022-11-23T06:41:09.052Z,9.39
2022-11-23T06:43:36.871Z,9.41
2022-11-23T06:46:06.921Z,9.36
2022-11-23T06:48:39.682Z,9.47
2022-11-23T06:51:08.578Z,9.48
2022-11-23T06:53:38.342Z,9.56
2022-11-23T06:56:08.959Z,9.58
2022-11-23T06:58:37.378Z,9.59
2022-11-23T07:01:11.055Z,9.60
2022-11-23T07:03:48.285Z,9.60
2022-11-23T07:06:23.240Z,9.62
2022-11-23T07:08:55.882Z,9.67
2022-11-23T07:11:50.017Z,9.71
2022-11-23T07:14:18.668Z,9.70
2022-11-23T07:16:48.857Z,9.68
2022-11-23T07:19:16.664Z,9.69
2022-11-23T07:21:45.994Z,9.74
2022-11-23T07:24:13.967Z,9.75
2022-11-23T07:26:42.172Z,9.78
2022-11-23T07:29:11.072Z,9.83
2022-11-23T07:31:39.131Z,9.87
2022-11-23T07:34:09.188Z,9.88
2022-11-23T07:36:37.246Z,9.91
2022-11-23T07:39:05.407Z,9.90
2022-11-23T07:41:33.597Z,9.95
2022-11-23T07:44:22.396Z,9.97
2022-11-23T07:46:55.762Z,10.03
2022-11-23T07:49:23.667Z,10.05
2022-11-23T07:51:51.476Z,10.12
2022-11-23T07:54:23.455Z,10.16
2022-11-23T07:56:51.592Z,10.14
2022-11-23T07:59:19.362Z,10.16
2022-11-23T08:01:51.186Z,10.18
2022-11-23T08:04:20.972Z,10.21
2022-11-23T08:06:48.755Z,10.23
2022-11-23T08:09:16.719Z,10.24
2022-11-23T08:11:44.532Z,10.22
2022-11-23T08:14:12.519Z,10.23
2022-11-23T08:16:40.313Z,10.30
2022-11-23T08:19:08.331Z,10.31
2022-11-23T08:21:36.193Z,10.36
2022-11-23T08:24:06.680Z,10.37
2022-11-23T08:26:34.680Z,10.35
2022-11-23T08:29:07.240Z,10.38
2022-11-23T08:31:35.735Z,10.43
2022-11-23T08:34:03.928Z,10.46
2022-11-23T08:36:31.977Z,10.48
2022-11-23T08:39:00.404Z,10.53
2022-11-23T08:41:28.626Z,10.56
2022-11-23T08:43:56.622Z,10.59
2022-11-23T08:46:25.029Z,10.69
2022-11-23T08:48:52.841Z,10.76
2022-11-23T08:51:23.189Z,10.78
2022-11-23T08:53:51.966Z,10.75
2022-11-23T08:56:20.203Z,10.69
2022-11-23T08:58:48.143Z,10.70
2022-11-23T09:01:17.535Z,10.69
2022-11-23T09:03:46.203Z,10.70
2022-11-23T09:06:14.083Z,10.59
2022-11-23T09:08:41.936Z,10.58
2022-11-23T09:11:14.463Z,10.55
2022-11-23T09:13:42.348Z,10.55
2022-11-23T09:16:10.648Z,10.50
2022-11-23T09:18:38.637Z,10.48
2022-11-23T09:21:06.588Z,10.47
2022-11-23T09:23:34.635Z,10.48
2022-11-23T09:26:05.012Z,10.50
2022-11-23T09:28:33.437Z,10.52
2022-11-23T09:31:04.751Z,10.51
2022-11-23T09:33:32.596Z,10.52
2022-11-23T09:36:03.433Z,10.56
2022-11-23T09:38:55.202Z,10.62
2022-11-23T09:42:00.636Z,10.63
2022-11-23T09:45:01.470Z,10.66
2022-11-23T09:48:05.762Z,10.68
2022-11-23T09:51:04.279Z,10.71
2022-11-23T09:54:04.211Z,10.62
2022-11-23T09:56:37.454Z,10.65
2022-11-23T09:59:34.976Z,10.68
2022-11-23T10:02:03.114Z,10.73
2022-11-23T10:04:35.577Z,10.74
2022-11-23T10:07:25.719Z,10.73
2022-11-23T10:10:24.338Z,10.73
2022-11-23T10:12:59.729Z,10.75
2022-11-23T10:15:38.141Z,10.75
2022-11-23T10:18:58.236Z,10.77
2022-11-23T10:22:27.783Z,10.81
2022-11-23T10:24:55.711Z,10.85
2022-11-23T10:27:25.242Z,10.82
2022-11-23T10:29:56.588Z,10.79
2022-11-23T10:32:35.153Z,10.83
2022-11-23T10:35:35.635Z,10.80
2022-11-23T10:38:20.326Z,10.82
2022-11-23T10:41:12.378Z,10.86
2022-11-23T10:44:02.907Z,10.92
2022-11-23T10:46:37.320Z,10.99
2022-11-23T10:49:26.228Z,10.90
2022-11-23T10:52:05.285Z,10.98
2022-11-23T10:54:46.128Z,11.07
2022-11-23T10:57:34.858Z,11.16
2022-11-23T11:00:16.176Z,11.26
2022-11-23T11:02:54.886Z,11.32
2022-11-23T11:08:35.929Z,11.43
2022-11-23T11:11:22.041Z,11.41
2022-11-23T11:13:50.047Z,11.39
2022-11-23T11:16:33.513Z,11.36
2022-11-23T11:19:21.220Z,11.38
2022-11-23T11:21:49.192Z,11.39
2022-11-23T11:24:26.206Z,11.37
2022-11-23T11:27:03.834Z,11.39
2022-11-23T11:29:38.989Z,11.39
2022-11-23T11:32:18.566Z,11.42
2022-11-23T11:35:26.007Z,11.42
2022-11-23T11:38:02.068Z,11.48
2022-11-23T11:40:45.312Z,11.51
2022-11-23T11:43:33.574Z,11.56
2022-11-23T11:46:29.142Z,11.62
2022-11-23T11:49:20.865Z,11.66
2022-11-23T11:52:15.132Z,11.70
2022-11-23T11:55:03.056Z,11.77
2022-11-23T11:57:43.659Z,11.81
2022-11-23T12:00:17.489Z,11.88
2022-11-23T12:03:16.270Z,11.90
2022-11-23T12:05:55.794Z,11.95
2022-11-23T12:08:33.839Z,12.01
2022-11-23T12:11:02.379Z,12.01
2022-11-23T12:13:35.266Z,12.08
2022-11-23T12:17:10.260Z,12.14
2022-11-23T12:19:54.769Z,12.24
2022-11-23T12:22:50.683Z,12.29
2022-11-23T12:25:41.974Z,12.35
2022-11-23T12:28:36.593Z,12.44
2022-11-23T12:31:31.458Z,12.48
2022-11-23T12:34:46.170Z,12.53
2022-11-23T12:37:44.759Z,12.60
2022-11-23T12:40:42.165Z,12.65
2022-11-23T12:43:36.776Z,12.70
2022-11-23T12:46:13.642Z,12.71
2022-11-23T12:49:09.561Z,12.66
2022-11-23T12:51:47.846Z,12.69
2022-11-23T12:55:15.007Z,12.77
2022-11-23T12:58:00.389Z,12.87
2022-11-23T13:00:36.367Z,12.90
2022-11-23T13:03:33.846Z,12.95
2022-11-23T13:06:27.709Z,13.01
2022-11-23T13:09:16.561Z,13.05
2022-11-23T13:11:53.061Z,13.07
2022-11-23T13:14:47.123Z,13.09
2022-11-23T13:17:58.081Z,13.10
2022-11-23T13:20:37.753Z,13.17
2022-11-23T13:23:06.928Z,13.20
2022-11-23T13:25:34.791Z,13.22
2022-11-23T13:28:31.034Z,13.17
2022-11-23T13:31:17.109Z,13.22
2022-11-23T13:33:48.786Z,13.18
2022-11-23T13:37:12.302Z,13.18
2022-11-23T13:40:59.571Z,13.28
2022-11-23T13:43:38.693Z,13.30
2022-11-23T13:46:31.617Z,13.26
2022-11-23T13:49:00.839Z,13.27
2022-11-23T13:51:35.001Z,13.26
2022-11-23T13:54:24.927Z,13.24
2022-11-23T13:57:05.081Z,13.25
2022-11-23T13:59:34.986Z,13.23
2022-11-23T14:02:08.871Z,13.24
2022-11-23T14:04:44.712Z,13.30
2022-11-23T14:07:43.635Z,13.32
2022-11-23T14:10:23.549Z,13.31
2022-11-23T14:13:12.424Z,13.24
2022-11-23T14:15:45.376Z,13.23
2022-11-23T14:18:50.324Z,13.28
2022-11-23T14:21:29.623Z,13.30
2022-11-23T14:24:28.991Z,13.29
2022-11-23T14:27:47.657Z,13.33
2022-11-23T14:30:59.792Z,13.29
2022-11-23T14:33:55.786Z,13.26
2022-11-23T14:36:51.708Z,13.24
2022-11-23T14:39:50.171Z,13.27
2022-11-23T14:42:23.058Z,13.27
2022-11-23T14:44:52.472Z,13.29
2022-11-23T14:47:29.940Z,13.25
2022-11-23T14:49:58.435Z,13.19
2022-11-23T14:52:37.106Z,13.12
2022-11-23T14:55:07.008Z,13.07
2022-11-23T14:57:44.810Z,13.03
2022-11-23T15:00:41.913Z,12.94
2022-11-23T15:03:49.319Z,12.87
2022-11-23T15:06:18.547Z,12.78
2022-11-23T15:08:57.537Z,12.69
2022-11-23T15:11:29.444Z,12.61
2022-11-23T15:14:03.499Z,12.56
2022-11-23T15:16:42.570Z,12.51
2022-11-23T15:19:28.563Z,12.45
2022-11-23T15:21:57.469Z,12.37
2022-11-23T15:24:27.228Z,12.31
2022-11-23T15:27:12.117Z,12.28
2022-11-23T15:29:40.993Z,12.25
2022-11-23T15:32:34.170Z,12.16
2022-11-23T15:35:07.927Z,12.15
2022-11-23T15:38:04.333Z,12.10
2022-11-23T15:40:36.739Z,12.09
2022-11-23T15:43:04.906Z,12.07
2022-11-23T15:45:41.734Z,12.07
2022-11-23T15:48:18.267Z,12.05
2022-11-23T15:51:05.510Z,12.04
2022-11-23T15:53:47.518Z,12.06
2022-11-23T15:56:31.423Z,12.07
2022-11-23T15:59:06.313Z,12.08
2022-11-23T16:01:34.080Z,12.06
2022-11-23T16:04:04.551Z,12.08
2022-11-23T16:06:42.280Z,12.09
2022-11-23T16:09:53.304Z,12.10
2022-11-23T16:12:34.055Z,12.13
2022-11-23T16:15:37.943Z,12.08
2022-11-23T16:18:31.976Z,12.12
2022-11-23T16:21:04.462Z,12.16
2022-11-23T16:24:04.221Z,12.12
2022-11-23T16:26:34.093Z,12.16
2022-11-23T16:29:02.478Z,12.16
2022-11-23T16:31:39.666Z,12.18
2022-11-23T16:34:17.764Z,12.18
2022-11-23T16:36:45.912Z,12.20
2022-11-23T16:39:14.820Z,12.20
2022-11-23T16:41:42.795Z,12.19
2022-11-23T16:44:10.613Z,12.21
2022-11-23T16:46:43.289Z,12.20
2022-11-23T16:49:23.658Z,12.20
2022-11-23T16:51:57.075Z,12.19
2022-11-23T16:54:25.761Z,12.18
2022-11-23T16:56:53.858Z,12.15
2022-11-23T16:59:23.788Z,12.12
2022-11-23T17:01:56.954Z,12.12
2022-11-23T17:04:26.407Z,12.11
2022-11-23T17:06:54.523Z,12.09
2022-11-23T17:09:22.313Z,12.04
2022-11-23T17:11:50.981Z,12.01
2022-11-23T17:14:20.647Z,12.00
2022-11-23T17:16:50.058Z,11.98
2022-11-23T17:19:20.642Z,11.94
2022-11-23T17:21:48.690Z,11.91
2022-11-23T17:24:16.549Z,11.85
2022-11-23T17:26:52.765Z,11.82
2022-11-23T17:29:21.401Z,11.79
2022-11-23T17:31:50.777Z,11.73
2022-11-23T17:34:18.608Z,11.72
2022-11-23T17:36:49.662Z,11.68
2022-11-23T17:39:24.580Z,11.65
2022-11-23T17:41:52.486Z,11.62
2022-11-23T17:44:20.795Z,11.62
2022-11-23T17:46:50.887Z,11.60
2022-11-23T17:49:20.211Z,11.58
2022-11-23T17:51:47.959Z,11.51
2022-11-23T17:54:15.856Z,11.48
2022-11-23T17:56:43.643Z,11.45
2022-11-23T17:59:11.514Z,11.41
2022-11-23T18:01:40.113Z,11.40
2022-11-23T18:04:20.295Z,11.40
2022-11-23T18:06:48.137Z,11.39
2022-11-23T18:09:15.912Z,11.40
2022-11-23T18:11:43.814Z,11.40
2022-11-23T18:14:11.604Z,11.39
2022-11-23T18:16:39.545Z,11.36
2022-11-23T18:19:07.615Z,11.31
2022-11-23T18:21:35.409Z,11.31
2022-11-23T18:24:04.836Z,11.30
2022-11-23T18:26:32.866Z,11.29
2022-11-23T18:29:00.645Z,11.27
2022-11-23T18:31:28.986Z,11.22
2022-11-23T18:33:56.934Z,11.21
2022-11-23T18:36:24.702Z,11.18
2022-11-23T18:38:52.522Z,11.16
2022-11-23T18:41:22.154Z,11.15
2022-11-23T18:43:50.376Z,11.14
2022-11-23T18:46:21.438Z,11.15
2022-11-23T18:48:50.398Z,11.16
2022-11-23T18:51:18.773Z,11.14
2022-11-23T18:53:47.923Z,11.13
2022-11-23T18:56:15.972Z,11.08
2022-11-23T18:58:45.789Z,11.11
2022-11-23T19:01:17.875Z,11.07
2022-11-23T19:03:48.839Z,11.11
2022-11-23T19:06:19.028Z,11.12
2022-11-23T19:08:50.837Z,11.14
2022-11-23T19:11:22.447Z,11.11
2022-11-23T19:13:55.856Z,11.14
2022-11-23T19:16:31.339Z,11.14
2022-11-23T19:19:05.363Z,11.06
2022-11-23T19:21:35.481Z,11.06
2022-11-23T19:24:04.220Z,11.05
2022-11-23T19:26:32.720Z,10.95
2022-11-23T19:29:00.658Z,10.92
2022-11-23T19:31:31.587Z,10.97
2022-11-23T19:34:10.482Z,10.98
2022-11-23T19:36:38.417Z,10.92
2022-11-23T19:39:08.327Z,10.78
2022-11-23T19:41:36.107Z,10.82
2022-11-23T19:44:04.636Z,10.81
2022-11-23T19:46:32.987Z,10.81
2022-11-23T19:49:01.006Z,10.91
2022-11-23T19:51:29.165Z,10.83
2022-11-23T19:53:57.719Z,10.85
2022-11-23T19:56:29.362Z,10.76
2022-11-23T19:59:01.565Z,10.88
2022-11-23T20:01:32.166Z,10.87
2022-11-23T20:04:08.321Z,10.71
2022-11-23T20:06:42.521Z,10.42
2022-11-23T20:09:19.478Z,9.78
2022-11-23T20:11:51.014Z,9.78
2022-11-23T20:14:19.773Z,10.05
2022-11-23T20:16:47.971Z,9.78
2022-11-23T20:19:15.981Z,9.59
2022-11-23T20:21:43.829Z,9.99
2022-11-23T20:24:13.877Z,9.70
2022-11-23T20:26:42.391Z,10.09
2022-11-23T20:29:10.776Z,9.99
2022-11-23T20:31:39.237Z,9.45
2022-11-23T20:34:09.995Z,9.58
2022-11-23T20:36:40.173Z,9.52
2022-11-23T20:39:10.919Z,9.58
2022-11-23T20:41:39.157Z,9.20
2022-11-23T20:44:13.408Z,9.70
2022-11-23T20:49:31.109Z,9.72
2022-11-23T20:51:59.822Z,9.64
2022-11-23T20:54:28.016Z,9.83
2022-11-23T20:56:58.057Z,9.79
2022-11-23T20:59:26.382Z,9.95
2022-11-23T21:01:54.263Z,9.79
2022-11-23T21:04:22.114Z,10.04
2022-11-23T21:06:49.836Z,10.14
2022-11-23T21:09:17.760Z,9.85
2022-11-23T21:12:04.211Z,9.89
2022-11-23T21:14:33.033Z,9.72
2022-11-23T21:17:01.175Z,9.63
2022-11-23T21:19:32.428Z,9.72
2022-11-23T21:22:07.874Z,9.86
2022-11-23T21:24:36.438Z,9.87
2022-11-23T21:27:07.992Z,9.68
2022-11-23T21:29:35.898Z,9.65
2022-11-23T21:32:04.198Z,9.78
2022-11-23T21:34:32.749Z,9.70
2022-11-23T21:37:01.065Z,9.79
2022-11-23T21:39:32.369Z,9.56
2022-11-23T21:42:00.166Z,10.24
2022-11-23T21:44:27.974Z,10.08
2022-11-23T21:46:55.998Z,9.80
2022-11-23T21:49:25.684Z,9.75
2022-11-23T21:51:53.478Z,10.08
2022-11-23T21:54:21.215Z,9.81
2022-11-23T21:56:49.043Z,9.82
2022-11-23T21:59:16.827Z,10.06
2022-11-23T22:01:44.589Z,10.02
2022-11-23T22:04:15.730Z,10.43
2022-11-23T22:06:45.287Z,10.17
2022-11-23T22:09:13.988Z,9.65
2022-11-23T22:11:43.788Z,10.22
2022-11-23T22:14:15.140Z,9.86
2022-11-23T22:16:54.115Z,10.11
2022-11-23T22:19:21.929Z,10.44
2022-11-23T22:21:49.743Z,10.60
2022-11-23T22:24:20.175Z,10.54
2022-11-23T22:26:48.209Z,10.63
2022-11-23T22:29:16.364Z,10.59
2022-11-23T22:31:44.466Z,10.57
2022-11-23T22:34:13.908Z,10.82
2022-11-23T22:36:42.485Z,10.66
2022-11-23T22:39:10.363Z,10.61
2022-11-23T22:41:38.696Z,10.84
2022-11-23T22:44:09.608Z,10.55
2022-11-23T22:46:38.985Z,10.53
2022-11-23T22:49:07.383Z,10.62
2022-11-23T22:51:35.248Z,10.77
2022-11-23T22:54:03.688Z,10.84
2022-11-23T22:56:31.850Z,10.96
2022-11-23T22:59:00.217Z,11.01
2022-11-23T23:01:30.844Z,10.92
2022-11-23T23:04:01.769Z,10.92
2022-11-23T23:06:34.832Z,10.97
2022-11-23T23:09:06.260Z,10.95
2022-11-23T23:11:35.619Z,10.78
2022-11-23T23:14:03.884Z,10.80
2022-11-23T23:16:32.017Z,10.90
2022-11-23T23:18:59.952Z,10.88
2022-11-23T23:21:29.514Z,10.65
2022-11-23T23:24:01.204Z,10.86
2022-11-23T23:26:30.067Z,10.84
2022-11-23T23:29:00.556Z,10.87
2022-11-23T23:31:30.038Z,10.83
2022-11-23T23:33:59.939Z,10.90
2022-11-23T23:36:28.109Z,10.92
2022-11-23T23:38:57.522Z,11.02
2022-11-23T23:41:25.332Z,11.09
2022-11-23T23:43:53.134Z,11.10
2022-11-23T23:46:21.073Z,11.13
2022-11-23T23:48:48.885Z,11.08
2022-11-23T23:51:20.053Z,11.07
2022-11-23T23:53:48.703Z,11.11
2022-11-23T23:56:22.311Z,11.09
2022-11-23T23:58:51.095Z,11.15
